Time;durP1;ratioP1;P1;durP2;ratioP2;P2;SDS_P1;SDS_P2;PMS_P1;PMS_P2;Temp;Humidity;BMP_temperature;BMP_pressure;BME280_temperature;BME280_humidity;BME280_pressure;Samples;Min_cycle;Max_cycle;Signal;HPM_P1;HPM_P2
2022/12/04 00:02:10;;;;;;;8.38;7.55;;;;;;;9.68;87.70;101248.00;5022731;28;20084;-43
2022/12/04 00:04:36;;;;;;;10.10;8.32;;;;;;;9.61;87.20;101247.09;5016132;28;20113;-43
2022/12/04 00:07:02;;;;;;;8.38;7.55;;;;;;;9.44;87.77;101247.34;5021453;28;20026;-44
2022/12/04 00:09:28;;;;;;;7.40;6.70;;;;;;;9.36;88.91;101242.09;5029292;28;20482;-43
2022/12/04 00:11:55;;;;;;;7.30;5.68;;;;;;;9.43;88.77;101248.34;5034860;28;20033;-44
2022/12/04 00:14:21;;;;;;;5.30;4.82;;;;;;;9.37;88.50;101245.59;5035348;28;20549;-44
2022/12/04 00:16:49;;;;;;;5.68;4.75;;;;;;;9.39;88.88;101249.75;5035800;28;20474;-45
2022/12/04 00:19:16;;;;;;;3.90;2.65;;;;;;;9.30;88.75;101236.69;5035644;28;20446;-45
2022/12/04 00:21:44;;;;;;;2.50;2.30;;;;;;;9.37;88.22;101233.06;5035351;28;20044;-46
2022/12/04 00:24:10;;;;;;;2.85;2.55;;;;;;;9.25;88.30;101227.38;5035520;28;20022;-47
2022/12/04 00:26:36;;;;;;;4.95;2.40;;;;;;;9.39;88.23;101217.69;5033954;28;20036;-44
2022/12/04 00:29:02;;;;;;;3.53;2.60;;;;;;;9.01;89.18;101203.69;5035385;28;20513;-43
2022/12/04 00:31:30;;;;;;;2.95;1.92;;;;;;;9.36;88.24;101211.88;5027237;28;20402;-46
2022/12/04 00:33:56;;;;;;;2.55;1.83;;;;;;;9.12;89.05;101205.03;5034436;28;20108;-50
2022/12/04 00:36:25;;;;;;;5.07;2.63;;;;;;;8.94;90.00;101211.63;5020918;28;20028;-47
2022/12/04 00:38:51;;;;;;;2.00;1.75;;;;;;;9.43;88.28;101212.78;5017009;28;20061;-47
2022/12/04 00:41:21;;;;;;;2.38;1.85;;;;;;;9.39;87.74;101212.34;5012682;28;20021;-46
2022/12/04 00:43:48;;;;;;;2.15;1.83;;;;;;;9.54;87.40;101214.94;5035198;28;20104;-49
2022/12/04 00:46:15;;;;;;;2.53;2.33;;;;;;;9.48;86.94;101208.50;5032168;28;20099;-45
2022/12/04 00:48:42;;;;;;;3.42;2.38;;;;;;;9.58;86.12;101210.06;5026675;28;20442;-46
2022/12/04 00:51:11;;;;;;;2.88;2.20;;;;;;;9.39;86.72;101201.66;5034520;28;20075;-46
2022/12/04 00:53:38;;;;;;;4.07;2.40;;;;;;;9.40;85.94;101194.47;5035027;28;20115;-48
2022/12/04 00:56:10;;;;;;;4.03;2.40;;;;;;;9.33;86.80;101188.19;5034830;28;20178;-46
2022/12/04 00:58:36;;;;;;;3.80;2.42;;;;;;;9.03;88.02;101180.28;5035117;28;20477;-45
2022/12/04 01:01:08;;;;;;;5.28;2.70;;;;;;;9.28;87.27;101182.63;5034718;28;20027;-46
2022/12/04 01:03:35;;;;;;;2.67;2.15;;;;;;;9.22;87.05;101190.38;5026620;28;20057;-46
2022/12/04 01:06:02;;;;;;;4.65;2.08;;;;;;;9.01;87.97;101187.66;5033891;28;20036;-46
2022/12/04 01:08:28;;;;;;;4.78;2.40;;;;;;;9.29;86.58;101185.09;5033064;28;20034;-45
2022/12/04 01:10:54;;;;;;;2.85;2.00;;;;;;;9.11;86.99;101198.06;5027740;28;20072;-46
2022/12/04 01:13:22;;;;;;;4.22;2.72;;;;;;;9.18;86.97;101202.44;5031268;28;20025;-45
2022/12/04 01:15:48;;;;;;;19.05;10.55;;;;;;;9.26;86.55;101202.31;5023689;28;20383;-46
2022/12/04 01:18:15;;;;;;;28.55;14.75;;;;;;;9.38;85.81;101202.66;5014855;28;20018;-44
2022/12/04 01:20:51;;;;;;;9.00;5.28;;;;;;;9.32;85.63;101210.59;5014751;28;20076;-43
2022/12/04 01:23:18;;;;;;;12.88;6.32;;;;;;;9.10;86.60;101207.88;5030766;28;20068;-43
2022/12/04 01:25:52;;;;;;;7.22;5.13;;;;;;;9.10;87.31;101218.56;5034516;28;20433;-44
2022/12/04 01:28:19;;;;;;;4.82;3.13;;;;;;;9.04;87.15;101221.97;5024663;28;20482;-47
2022/12/04 01:30:54;;;;;;;2.75;2.10;;;;;;;9.07;87.24;101218.13;5033947;28;20056;-45
2022/12/04 01:33:21;;;;;;;3.55;2.50;;;;;;;8.99;86.96;101221.72;5034229;28;20036;-46
2022/12/04 01:35:55;;;;;;;3.05;1.80;;;;;;;9.05;87.34;101207.63;5034089;28;20513;-45
2022/12/04 01:38:21;;;;;;;2.72;2.28;;;;;;;8.88;87.68;101198.16;5034447;28;20029;-47
2022/12/04 01:40:48;;;;;;;2.70;2.40;;;;;;;8.95;88.00;101210.59;5034102;28;20037;-45
2022/12/04 01:43:14;;;;;;;2.50;1.83;;;;;;;8.80;88.50;101228.47;5033742;28;20033;-45
2022/12/04 01:45:43;;;;;;;2.65;2.45;;;;;;;9.08;87.56;101228.63;5033961;28;20037;-47
2022/12/04 01:48:15;;;;;;;2.92;2.63;;;;;;;9.12;87.65;101235.25;5033824;28;20025;-45
2022/12/04 01:50:43;;;;;;;3.45;2.50;;;;;;;9.20;86.77;101220.94;5033667;28;20080;-45
2022/12/04 01:53:11;;;;;;;5.68;3.60;;;;;;;8.95;87.89;101229.28;5033507;28;20028;-47
2022/12/04 01:55:37;;;;;;;5.10;3.08;;;;;;;8.72;89.04;101226.72;5034255;28;20053;-45
2022/12/04 01:58:05;;;;;;;4.85;3.20;;;;;;;8.70;90.09;101227.91;5033889;28;20044;-48
2022/12/04 02:00:31;;;;;;;3.92;2.90;;;;;;;9.10;88.17;101223.91;5033468;28;20029;-48
2022/12/04 02:02:58;;;;;;;4.20;2.95;;;;;;;9.23;87.34;101232.09;5033539;28;20017;-46
2022/12/04 02:05:24;;;;;;;3.50;2.97;;;;;;;9.22;87.88;101243.78;5033075;28;20119;-45
2022/12/04 02:07:55;;;;;;;3.95;2.90;;;;;;;9.40;86.55;101245.22;5021144;28;20075;-45
2022/12/04 02:10:29;;;;;;;4.35;3.03;;;;;;;9.34;86.33;101244.13;5033081;28;20018;-45
2022/12/04 02:12:58;;;;;;;3.13;2.55;;;;;;;9.45;85.95;101249.00;5030768;28;20053;-45
2022/12/04 02:15:43;;;;;;;3.30;2.97;;;;;;;9.28;86.95;101244.06;5031242;28;20037;-47
2022/12/04 02:18:32;;;;;;;3.87;2.93;;;;;;;9.31;86.55;101236.47;5016461;28;20029;-47
2022/12/04 02:21:09;;;;;;;3.38;3.08;;;;;;;9.56;85.55;101246.84;5016343;28;20495;-46
2022/12/04 02:24:13;;;;;;;3.03;2.72;;;;;;;9.55;85.63;101254.03;5028958;28;20066;-46
2022/12/04 02:26:57;;;;;;;5.28;3.78;;;;;;;9.38;85.57;101253.41;5020918;28;20019;-47
2022/12/04 02:29:41;;;;;;;4.72;3.38;;;;;;;9.32;86.24;101248.00;5033321;28;20033;-45
2022/12/04 02:32:21;;;;;;;4.95;3.45;;;;;;;9.45;86.05;101240.97;5052677;28;20507;-46
2022/12/04 02:35:43;;;;;;;4.55;3.40;;;;;;;9.54;85.49;101260.38;5052869;28;20082;-48
2022/12/04 02:38:13;;;;;;;5.45;4.00;;;;;;;9.74;84.84;101250.72;4950080;29;20023;-45
2022/12/04 02:40:57;;;;;;;6.68;5.10;;;;;;;9.76;84.60;101240.66;5029406;28;20466;-45
2022/12/04 02:43:33;;;;;;;17.65;9.80;;;;;;;9.87;83.52;101239.31;5032834;28;20112;-49
2022/12/04 02:46:06;;;;;;;38.38;19.75;;;;;;;9.67;84.12;101236.47;5025465;28;20026;-46
2022/12/04 02:48:39;;;;;;;7.28;5.38;;;;;;;9.52;85.10;101243.72;5031148;28;20120;-45
2022/12/04 02:51:09;;;;;;;4.90;3.88;;;;;;;9.30;85.74;101244.69;5025143;28;20084;-46
2022/12/04 02:53:40;;;;;;;4.22;3.70;;;;;;;9.63;85.31;101243.22;5032522;28;20034;-49
2022/12/04 02:56:19;;;;;;;5.10;3.75;;;;;;;9.72;84.65;101247.44;5031986;28;20084;-46
2022/12/04 02:59:08;;;;;;;6.00;4.57;;;;;;;9.61;84.94;101252.44;5032277;28;20073;-46
2022/12/04 03:01:37;;;;;;;5.60;4.45;;;;;;;9.53;85.24;101258.72;5031966;28;20033;-48
2022/12/04 03:04:14;;;;;;;6.90;6.20;;;;;;;9.68;84.43;101256.84;5033119;28;20109;-45
2022/12/04 03:06:44;;;;;;;7.38;6.60;;;;;;;9.83;83.87;101261.28;5032222;28;20124;-48
2022/12/04 03:09:20;;;;;;;5.38;4.70;;;;;;;9.67;84.41;101246.34;5032116;28;20029;-45
2022/12/04 03:11:54;;;;;;;5.80;4.05;;;;;;;9.53;84.96;101259.53;5031981;28;20033;-48
2022/12/04 03:14:37;;;;;;;5.22;3.97;;;;;;;9.76;83.74;101251.34;5031799;28;20053;-46
2022/12/04 03:17:08;;;;;;;4.60;3.40;;;;;;;9.56;84.58;101245.00;5032172;28;20029;-49
2022/12/04 03:19:41;;;;;;;5.18;4.03;;;;;;;9.36;85.62;101228.72;5032429;28;20031;-46
2022/12/04 03:22:12;;;;;;;5.85;5.15;;;;;;;9.33;86.28;101230.94;5032116;28;20033;-47
2022/12/04 03:24:51;;;;;;;6.85;5.43;;;;;;;9.73;84.74;101241.06;5021514;28;20018;-48
2022/12/04 03:27:41;;;;;;;5.00;4.50;;;;;;;9.63;84.80;101245.88;5010618;28;20053;-45
2022/12/04 03:30:11;;;;;;;5.40;4.78;;;;;;;9.60;85.42;101243.56;5012782;28;20034;-45
2022/12/04 03:32:40;;;;;;;5.72;4.07;;;;;;;9.62;85.15;101249.59;5012385;28;20030;-48
2022/12/04 03:35:22;;;;;;;4.70;4.20;;;;;;;9.67;85.27;101252.50;5011741;28;20100;-46
2022/12/04 03:38:20;;;;;;;4.28;3.88;;;;;;;9.71;85.31;101259.13;5016587;28;20148;-45
2022/12/04 03:41:19;;;;;;;4.60;3.80;;;;;;;9.73;85.04;101256.28;5031779;28;20033;-46
2022/12/04 03:44:11;;;;;;;5.03;3.50;;;;;;;9.82;84.69;101262.31;5030850;28;20075;-45
2022/12/04 03:46:54;;;;;;;6.53;4.57;;;;;;;9.88;84.61;101266.88;5016552;28;20041;-45
2022/12/04 03:49:28;;;;;;;5.22;4.72;;;;;;;9.94;83.98;101252.78;5031893;28;20055;-48
2022/12/04 03:52:07;;;;;;;6.18;4.80;;;;;;;9.87;83.93;101241.19;5031096;28;20026;-48
2022/12/04 03:54:41;;;;;;;6.18;4.85;;;;;;;9.75;84.35;101239.00;5031452;28;20583;-47
2022/12/04 03:57:22;;;;;;;5.45;4.90;;;;;;;9.69;85.04;101230.94;5031248;28;20044;-45
2022/12/04 03:59:51;;;;;;;4.72;4.28;;;;;;;9.79;84.65;101226.94;5022493;28;20471;-44
2022/12/04 04:02:21;;;;;;;5.13;4.60;;;;;;;9.94;84.05;101236.75;5010878;28;20035;-45
2022/12/04 04:04:54;;;;;;;5.47;4.57;;;;;;;9.88;84.14;101235.63;5025016;28;20026;-46
2022/12/04 04:07:27;;;;;;;7.03;5.65;;;;;;;9.97;83.96;101228.31;5011930;28;20092;-48
2022/12/04 04:10:00;;;;;;;6.28;5.60;;;;;;;10.02;83.88;101225.88;5014222;28;20124;-49
2022/12/04 04:12:30;;;;;;;6.28;5.68;;;;;;;10.05;83.68;101231.69;5038075;28;20393;-45
2022/12/04 04:26:28;;;;;;;7.13;5.35;;;;;;;10.11;83.48;101248.81;5031498;28;20036;-45
2022/12/04 04:28:54;;;;;;;6.25;5.38;;;;;;;10.02;83.88;101241.94;5034269;28;20036;-49
2022/12/04 04:31:23;;;;;;;5.30;4.80;;;;;;;10.12;83.48;101255.81;5041941;28;20025;-46
2022/12/04 04:34:13;;;;;;;6.20;5.50;;;;;;;10.07;83.63;101252.88;5031109;28;20037;-49
2022/12/04 04:36:58;;;;;;;4.80;4.38;;;;;;;10.08;83.67;101264.41;5031291;28;20074;-45
2022/12/04 04:39:24;;;;;;;6.47;4.65;;;;;;;10.08;83.64;101275.94;5014191;28;20084;-47
2022/12/04 04:41:56;;;;;;;6.13;4.82;;;;;;;10.05;83.98;101265.63;5012826;28;20033;-46
2022/12/04 04:44:38;;;;;;;6.30;5.70;;;;;;;10.02;83.96;101282.06;5015254;28;20022;-44
2022/12/04 04:47:11;;;;;;;7.47;6.50;;;;;;;10.06;83.83;101288.69;5041750;28;20496;-44
2022/12/04 04:49:39;;;;;;;7.47;6.78;;;;;;;10.13;83.29;101294.91;5041931;28;20375;-43
2022/12/04 04:52:06;;;;;;;9.93;8.02;;;;;;;10.11;83.75;101294.28;5034581;28;20048;-44
2022/12/04 04:54:34;;;;;;;10.18;8.00;;;;;;;10.13;83.50;101300.25;5023334;28;20129;-44
2022/12/04 04:57:00;;;;;;;10.85;9.35;;;;;;;10.01;83.86;101283.06;5028222;28;20109;-44
2022/12/04 04:59:27;;;;;;;9.52;8.40;;;;;;;10.09;83.78;101274.91;5034629;28;20017;-44
2022/12/04 05:01:53;;;;;;;9.45;8.27;;;;;;;10.09;83.75;101282.94;5034295;28;20029;-46
2022/12/04 05:04:19;;;;;;;9.38;8.23;;;;;;;10.17;83.56;101304.22;5049445;28;20037;-47
2022/12/04 05:06:47;;;;;;;10.52;9.43;;;;;;;10.22;83.36;101293.78;5042992;28;20071;-44
2022/12/04 05:09:14;;;;;;;11.80;10.25;;;;;;;10.24;83.02;101288.25;5021174;28;20030;-48
2022/12/04 05:11:40;;;;;;;11.50;10.20;;;;;;;10.29;83.03;101277.81;5014787;28;20022;-48
2022/12/04 05:14:08;;;;;;;10.85;9.73;;;;;;;10.32;82.80;101282.75;5034458;28;20029;-45
2022/12/04 05:16:34;;;;;;;10.40;9.07;;;;;;;10.23;83.18;101275.88;5034448;28;20492;-45
2022/12/04 05:21:45;;;;;;;11.13;10.02;;;;;;;10.17;83.27;101282.81;5052579;28;20028;-48
2022/12/04 05:24:11;;;;;;;10.40;9.30;;;;;;;10.21;82.66;101294.75;5051129;28;20087;-44
2022/12/04 05:26:37;;;;;;;10.15;9.07;;;;;;;10.11;82.65;101296.97;5034125;28;20135;-45
2022/12/04 05:29:03;;;;;;;9.43;8.52;;;;;;;10.01;82.68;101285.75;5034088;28;20025;-48
2022/12/04 05:31:29;;;;;;;9.35;8.40;;;;;;;9.95;82.61;101292.69;5012610;28;20026;-48
2022/12/04 05:33:56;;;;;;;8.40;7.50;;;;;;;9.90;82.49;101291.59;4995717;28;20374;-48
2022/12/04 05:36:22;;;;;;;8.63;7.75;;;;;;;9.81;82.22;101293.56;5014033;28;20387;-44
2022/12/04 05:38:48;;;;;;;7.80;6.95;;;;;;;9.76;82.15;101299.47;5053048;28;20029;-47
2022/12/04 05:41:14;;;;;;;8.88;7.97;;;;;;;9.66;81.82;101288.28;5018831;28;20030;-45
2022/12/04 05:43:41;;;;;;;8.00;7.25;;;;;;;9.61;81.97;101297.88;5014041;28;20026;-46
2022/12/04 05:46:09;;;;;;;7.05;5.93;;;;;;;9.55;81.49;101312.84;5014400;28;20125;-44
2022/12/04 05:48:35;;;;;;;7.68;6.88;;;;;;;9.44;81.26;101310.63;5013841;28;20118;-46
2022/12/04 05:51:09;;;;;;;7.53;6.82;;;;;;;9.37;81.12;101304.38;5013320;28;20116;-44
2022/12/04 05:53:36;;;;;;;7.20;6.47;;;;;;;9.31;80.83;101331.81;5016458;28;20038;-46
2022/12/04 05:56:04;;;;;;;6.50;5.82;;;;;;;9.24;80.72;101332.56;5053425;28;20049;-45
2022/12/04 05:58:33;;;;;;;7.03;6.38;;;;;;;9.16;80.40;101346.03;5052916;28;20036;-47
2022/12/04 06:00:59;;;;;;;8.02;7.22;;;;;;;9.05;80.50;101338.47;5047402;28;20084;-45
2022/12/04 06:03:25;;;;;;;8.20;7.40;;;;;;;9.12;80.29;101346.59;5033605;28;20043;-46
2022/12/04 06:05:51;;;;;;;7.40;6.68;;;;;;;9.10;80.27;101346.75;5033509;28;20025;-48
2022/12/04 06:08:18;;;;;;;7.07;6.38;;;;;;;9.04;80.73;101341.31;5033135;28;20086;-45
2022/12/04 06:10:44;;;;;;;6.95;6.28;;;;;;;8.98;81.22;101343.69;5034436;28;20075;-45
2022/12/04 06:13:10;;;;;;;7.93;6.88;;;;;;;9.00;81.00;101346.22;5053115;28;20027;-48
2022/12/04 06:15:38;;;;;;;6.93;5.93;;;;;;;8.97;81.18;101341.22;5053248;28;20033;-47
2022/12/04 06:18:05;;;;;;;7.38;6.68;;;;;;;8.94;81.28;101347.78;5053070;28;20025;-45
2022/12/04 06:20:32;;;;;;;6.70;6.00;;;;;;;8.92;81.13;101343.63;5033641;28;20442;-48
2022/12/04 06:22:58;;;;;;;7.93;7.13;;;;;;;8.87;81.53;101340.66;5032191;28;20116;-47
2022/12/04 06:25:24;;;;;;;7.88;7.07;;;;;;;8.93;81.84;101345.25;5032965;28;20021;-47
2022/12/04 06:27:51;;;;;;;7.63;6.57;;;;;;;8.86;82.94;101333.66;5044949;28;20044;-45
2022/12/04 06:30:17;;;;;;;7.50;5.78;;;;;;;8.89;83.07;101341.31;5012872;28;20034;-47
2022/12/04 06:32:43;;;;;;;6.85;5.85;;;;;;;8.84;82.91;101327.69;5036908;28;20515;-47
2022/12/04 06:35:10;;;;;;;6.07;5.47;;;;;;;8.81;82.70;101328.88;5052868;28;20086;-47
2022/12/04 06:37:36;;;;;;;18.27;16.40;;;;;;;8.82;82.74;101319.84;5039219;28;20040;-46
2022/12/04 06:40:03;;;;;;;48.05;42.85;;;;;;;8.86;81.77;101323.81;5013001;28;20033;-49
2022/12/04 06:42:29;;;;;;;27.05;24.30;;;;;;;8.76;81.81;101311.75;5014915;28;20084;-47
2022/12/04 06:44:55;;;;;;;25.50;23.00;;;;;;;8.69;82.14;101311.66;5012989;28;20030;-49
2022/12/04 06:47:21;;;;;;;19.05;16.02;;;;;;;8.64;82.02;101314.03;5020092;28;20382;-46
2022/12/04 06:49:50;;;;;;;14.63;13.25;;;;;;;8.59;82.20;101324.41;5032680;28;20108;-48
2022/12/04 06:52:17;;;;;;;19.50;17.40;;;;;;;8.53;82.13;101322.47;5031671;28;20037;-48
2022/12/04 06:54:43;;;;;;;17.80;15.95;;;;;;;8.50;81.85;101323.69;5019759;28;20132;-46
2022/12/04 06:57:09;;;;;;;12.88;11.65;;;;;;;8.38;81.75;101314.44;5017016;28;20029;-46
2022/12/04 06:59:35;;;;;;;10.88;9.77;;;;;;;8.35;81.80;101323.59;5032599;28;20064;-45
2022/12/04 07:02:02;;;;;;;9.88;8.88;;;;;;;8.33;81.59;101319.44;5031267;28;20022;-47
2022/12/04 07:04:28;;;;;;;12.20;10.90;;;;;;;8.27;81.67;101322.81;5036117;28;20021;-45
2022/12/04 07:06:54;;;;;;;9.93;9.02;;;;;;;8.23;81.38;101318.88;5049270;28;20044;-46
2022/12/04 07:09:20;;;;;;;7.88;7.18;;;;;;;8.20;81.41;101312.88;5031835;28;20022;-46
2022/12/04 07:11:46;;;;;;;9.02;8.20;;;;;;;8.10;81.41;101317.59;5031228;28;20018;-46
2022/12/04 07:14:13;;;;;;;6.93;6.22;;;;;;;8.04;81.31;101320.16;5012711;28;20069;-47
2022/12/04 07:16:41;;;;;;;7.20;6.45;;;;;;;8.03;80.84;101316.66;5012531;28;20037;-46
2022/12/04 07:19:12;;;;;;;7.72;6.90;;;;;;;7.97;80.73;101324.56;5030859;28;20034;-46
2022/12/04 07:21:39;;;;;;;7.10;6.40;;;;;;;7.90;80.86;101322.59;5031709;28;20119;-48
2022/12/04 07:24:06;;;;;;;6.65;5.97;;;;;;;7.88;80.77;101318.44;5048831;28;20157;-48
2022/12/04 07:26:32;;;;;;;7.00;6.28;;;;;;;7.82;81.19;101308.47;5051856;28;20078;-46
2022/12/04 07:28:59;;;;;;;7.22;6.43;;;;;;;7.75;80.94;101313.69;5047433;28;20447;-45
2022/12/04 07:31:26;;;;;;;7.72;6.97;;;;;;;7.78;81.32;101312.53;5016013;28;20026;-46
2022/12/04 07:33:53;;;;;;;8.80;8.00;;;;;;;7.82;80.82;101322.63;5010630;28;20026;-46
2022/12/04 07:36:21;;;;;;;12.07;9.38;;;;;;;7.80;81.13;101327.31;5010370;28;20022;-46
2022/12/04 07:38:48;;;;;;;10.88;9.77;;;;;;;7.86;80.81;101341.78;5013497;28;20483;-47
2022/12/04 07:41:14;;;;;;;10.40;8.95;;;;;;;7.81;81.08;101338.81;5011475;28;20121;-45
2022/12/04 07:43:41;;;;;;;25.05;16.50;;;;;;;7.84;81.36;101338.47;5012501;28;20037;-45
2022/12/04 07:46:14;;;;;;;63.10;31.77;;;;;;;7.87;81.80;101346.09;5012198;28;20029;-46
2022/12/04 07:48:40;;;;;;;70.00;36.13;;;;;;;8.03;82.24;101343.31;5047527;28;20079;-45
2022/12/04 07:51:11;;;;;;;74.68;36.88;;;;;;;8.07;82.93;101339.31;5051335;28;20024;-45
2022/12/04 07:53:38;;;;;;;76.60;39.97;;;;;;;8.10;82.86;101338.94;5028277;28;20105;-49
2022/12/04 07:56:05;;;;;;;72.25;38.55;;;;;;;8.37;83.44;101350.13;5011965;28;20394;-46
2022/12/04 07:58:32;;;;;;;76.63;35.88;;;;;;;8.20;83.96;101350.19;5028261;28;20390;-47
2022/12/04 08:01:17;;;;;;;48.00;27.65;;;;;;;8.40;83.94;101347.94;5031219;28;20029;-45
2022/12/04 08:03:45;;;;;;;45.30;24.48;;;;;;;8.61;84.13;101352.59;5029779;28;20556;-44
2022/12/04 08:06:11;;;;;;;36.85;19.45;;;;;;;8.63;84.82;101352.41;5037553;28;20048;-45
2022/12/04 08:08:37;;;;;;;27.63;16.45;;;;;;;8.60;84.90;101356.25;5051422;28;20032;-46
2022/12/04 08:11:08;;;;;;;24.13;14.65;;;;;;;8.70;85.01;101356.00;5043572;28;20112;-48
2022/12/04 08:13:35;;;;;;;30.73;15.93;;;;;;;8.58;85.67;101360.94;5031566;28;20104;-45
2022/12/04 08:16:05;;;;;;;24.10;14.50;;;;;;;8.48;86.23;101357.69;5030120;28;20029;-44
2022/12/04 08:18:32;;;;;;;21.55;13.43;;;;;;;8.56;86.68;101362.16;5031035;28;20489;-45
2022/12/04 08:21:10;;;;;;;14.82;11.15;;;;;;;8.71;86.84;101361.16;5033085;28;20083;-45
2022/12/04 08:23:38;;;;;;;16.38;11.27;;;;;;;8.75;86.66;101363.47;5035364;28;20030;-45
2022/12/04 08:26:05;;;;;;;16.45;11.70;;;;;;;8.62;87.39;101358.75;5035185;28;20108;-45
2022/12/04 08:28:32;;;;;;;14.48;10.98;;;;;;;8.66;88.09;101350.22;5035648;28;20029;-46
2022/12/04 08:31:12;;;;;;;15.57;11.95;;;;;;;8.72;88.17;101338.81;5034444;28;20045;-48
2022/12/04 08:33:39;;;;;;;15.75;11.50;;;;;;;8.78;87.87;101341.78;5035251;28;20087;-45
2022/12/04 08:36:07;;;;;;;15.82;11.77;;;;;;;8.89;87.57;101338.66;5034786;28;20025;-46
2022/12/04 08:38:33;;;;;;;17.38;12.18;;;;;;;8.66;87.63;101339.53;5034963;28;20035;-47
2022/12/04 08:41:02;;;;;;;17.42;12.02;;;;;;;8.81;87.53;101341.38;5034444;28;20033;-46
2022/12/04 08:43:28;;;;;;;16.25;12.55;;;;;;;8.86;86.97;101337.16;5035124;28;20033;-45
2022/12/04 08:45:59;;;;;;;17.02;12.13;;;;;;;8.87;87.18;101340.66;5034963;28;20039;-45
2022/12/04 08:48:26;;;;;;;16.73;13.10;;;;;;;8.87;87.42;101341.47;5034994;28;20119;-45
2022/12/04 08:50:53;;;;;;;17.10;13.30;;;;;;;8.95;87.40;101346.75;5034115;28;20036;-47
2022/12/04 08:53:20;;;;;;;18.95;13.88;;;;;;;8.96;87.74;101331.56;5034666;28;20551;-44
2022/12/04 08:55:46;;;;;;;18.88;14.63;;;;;;;8.94;87.58;101333.59;5034478;28;20512;-47
2022/12/04 08:58:13;;;;;;;19.73;15.18;;;;;;;8.88;88.40;101340.50;5034670;28;20029;-45
2022/12/04 09:00:40;;;;;;;18.40;14.43;;;;;;;8.95;87.68;101348.59;5017049;28;20025;-49
2022/12/04 09:03:06;;;;;;;17.58;13.82;;;;;;;8.95;87.53;101338.75;5034257;28;20032;-45
2022/12/04 09:05:32;;;;;;;20.10;15.07;;;;;;;9.05;87.18;101337.63;5034592;28;20059;-46
2022/12/04 09:07:59;;;;;;;20.25;14.68;;;;;;;8.98;87.61;101332.19;5034634;28;20034;-48
2022/12/04 09:10:25;;;;;;;17.58;13.45;;;;;;;8.98;87.59;101334.88;5034292;28;20028;-45
2022/12/04 09:12:51;;;;;;;19.70;13.35;;;;;;;8.98;87.13;101327.69;5033795;28;20021;-45
2022/12/04 09:15:17;;;;;;;14.65;12.35;;;;;;;9.11;87.02;101327.06;5034666;28;20390;-44
2022/12/04 09:17:43;;;;;;;17.13;12.05;;;;;;;9.18;86.63;101332.50;5034696;28;20022;-45
2022/12/04 09:20:10;;;;;;;15.57;11.57;;;;;;;9.25;86.15;101331.56;5034090;28;20033;-44
2022/12/04 09:22:37;;;;;;;14.77;11.90;;;;;;;9.22;86.56;101331.94;5033864;28;20032;-44
2022/12/04 09:25:04;;;;;;;13.57;11.18;;;;;;;9.33;85.90;101332.47;5034308;28;20025;-45
2022/12/04 09:27:35;;;;;;;16.40;11.65;;;;;;;9.29;86.22;101341.88;5034463;28;20556;-44
2022/12/04 09:30:01;;;;;;;15.57;11.25;;;;;;;9.35;86.06;101347.31;5033839;28;20505;-45
2022/12/04 09:32:27;;;;;;;11.63;10.10;;;;;;;9.50;85.86;101350.81;5032923;28;20029;-45
2022/12/04 09:34:53;;;;;;;11.13;9.55;;;;;;;9.62;85.69;101366.34;5037064;28;20056;-44
2022/12/04 09:37:19;;;;;;;11.35;9.07;;;;;;;9.54;85.48;101364.59;5053886;28;20155;-44
2022/12/04 09:39:46;;;;;;;11.32;9.73;;;;;;;9.56;85.75;101365.25;5038984;28;20504;-45
2022/12/04 09:42:25;;;;;;;11.85;8.77;;;;;;;9.62;85.83;101369.84;5033412;28;20057;-45
2022/12/04 09:44:59;;;;;;;10.93;9.30;;;;;;;9.52;86.36;101371.97;5033843;28;20423;-46
2022/12/04 09:47:33;;;;;;;7.60;6.72;;;;;;;9.53;86.44;101373.63;5033684;28;20474;-45
2022/12/04 09:50:23;;;;;;;9.07;6.50;;;;;;;9.26;88.23;101380.47;5019684;28;20030;-45
2022/12/04 09:53:13;;;;;;;8.73;6.97;;;;;;;9.40;87.93;101378.81;5026699;28;20029;-45
2022/12/04 09:56:02;;;;;;;7.03;6.32;;;;;;;9.38;87.72;101387.00;5033771;28;20053;-45
2022/12/04 09:58:52;;;;;;;7.57;6.68;;;;;;;9.52;87.87;101380.00;5033444;28;20099;-45
2022/12/04 10:01:30;;;;;;;5.88;4.70;;;;;;;9.61;87.10;101370.06;5033844;28;20091;-44
2022/12/04 10:03:56;;;;;;;6.95;5.00;;;;;;;9.58;87.15;101367.75;5033882;28;20021;-45
2022/12/04 10:06:32;;;;;;;5.32;4.82;;;;;;;9.41;87.72;101343.88;5034016;28;20139;-44
2022/12/04 10:09:08;;;;;;;7.03;5.20;;;;;;;9.35;88.51;101354.50;5034276;28;20441;-47
2022/12/04 10:11:52;;;;;;;6.43;4.90;;;;;;;9.45;87.70;101361.22;5015847;28;20080;-45
2022/12/04 10:14:41;;;;;;;6.50;5.03;;;;;;;9.50;87.65;101369.50;5033520;28;20425;-46
2022/12/04 10:17:28;;;;;;;6.63;5.32;;;;;;;9.64;87.57;101367.81;5033292;28;20390;-45
2022/12/04 10:20:17;;;;;;;7.65;5.30;;;;;;;9.76;86.71;101358.28;5032889;28;20033;-44
2022/12/04 10:23:08;;;;;;;5.57;4.38;;;;;;;9.71;86.42;101363.38;5033385;28;20029;-48
2022/12/04 10:25:37;;;;;;;6.25;3.83;;;;;;;9.77;86.28;101361.78;5020047;28;20035;-47
2022/12/04 10:28:22;;;;;;;5.13;3.88;;;;;;;9.77;86.09;101368.00;5015497;28;20026;-45
2022/12/04 10:30:51;;;;;;;4.50;3.93;;;;;;;9.62;87.05;101367.19;5012683;28;20045;-45
2022/12/04 10:33:28;;;;;;;5.63;4.60;;;;;;;9.61;87.12;101370.06;5013122;28;20266;-45
2022/12/04 10:35:55;;;;;;;4.28;3.75;;;;;;;9.46;87.82;101362.03;5013298;28;20117;-45
2022/12/04 10:38:29;;;;;;;4.50;3.97;;;;;;;9.63;87.16;101365.34;5013239;28;20101;-44
2022/12/04 10:41:02;;;;;;;5.10;4.25;;;;;;;9.64;87.24;101369.66;5012872;28;20026;-45
2022/12/04 10:43:46;;;;;;;6.30;4.40;;;;;;;9.66;87.05;101373.81;5029245;28;20056;-45
2022/12/04 10:46:15;;;;;;;4.38;3.97;;;;;;;9.67;87.32;101374.66;5052568;28;20037;-45
2022/12/04 10:48:45;;;;;;;4.75;4.30;;;;;;;9.71;87.10;101376.72;5048060;28;20033;-46
2022/12/04 10:51:16;;;;;;;5.05;4.55;;;;;;;9.90;86.28;101390.53;5032405;28;20026;-48
2022/12/04 10:53:44;;;;;;;5.53;5.00;;;;;;;9.86;86.44;101391.94;5032269;28;20028;-47
2022/12/04 10:56:13;;;;;;;7.13;5.45;;;;;;;9.89;86.58;101394.25;5032479;28;20045;-47
2022/12/04 10:58:40;;;;;;;7.72;6.10;;;;;;;9.87;86.06;101396.25;5032268;28;20040;-47
2022/12/04 11:01:10;;;;;;;8.32;6.65;;;;;;;9.88;86.75;101395.22;5032683;28;20025;-48
2022/12/04 11:03:37;;;;;;;10.30;7.38;;;;;;;9.87;86.43;101398.94;5032262;28;20037;-46
2022/12/04 11:06:06;;;;;;;10.43;9.40;;;;;;;9.95;86.42;101396.97;5032322;28;20032;-48
2022/12/04 11:08:42;;;;;;;12.95;10.73;;;;;;;9.89;87.17;101395.06;5031998;28;20489;-45
2022/12/04 11:11:12;;;;;;;12.30;11.00;;;;;;;9.93;86.61;101400.84;5032026;28;20116;-45
2022/12/04 11:13:38;;;;;;;13.52;12.00;;;;;;;9.87;87.06;101398.94;5032456;28;20078;-48
2022/12/04 11:16:08;;;;;;;15.00;12.93;;;;;;;9.92;87.34;101412.56;5032213;28;20025;-45
2022/12/04 11:18:48;;;;;;;16.60;14.27;;;;;;;9.80;87.12;101409.53;5048533;28;20036;-46
2022/12/04 11:21:32;;;;;;;19.35;14.93;;;;;;;9.59;88.73;101415.66;5012166;28;20026;-46
2022/12/04 11:23:59;;;;;;;17.00;14.60;;;;;;;9.68;88.63;101414.53;5012376;28;20391;-46
2022/12/04 11:26:36;;;;;;;22.73;17.02;;;;;;;9.77;88.60;101423.28;5012371;28;20438;-44
2022/12/04 11:29:06;;;;;;;24.45;18.98;;;;;;;9.79;88.19;101419.41;5012157;28;20026;-44
2022/12/04 11:31:32;;;;;;;25.55;20.52;;;;;;;9.83;88.36;101419.03;5012070;28;20026;-45
2022/12/04 11:34:06;;;;;;;24.23;19.10;;;;;;;9.70;89.30;101412.50;5015850;28;20490;-44
2022/12/04 11:36:40;;;;;;;24.50;18.85;;;;;;;9.75;88.69;101422.66;5020859;28;20056;-46
2022/12/04 11:39:21;;;;;;;20.95;17.02;;;;;;;9.74;88.32;101421.00;5031857;28;20060;-48
2022/12/04 11:42:05;;;;;;;25.52;18.58;;;;;;;9.68;89.08;101424.41;5031873;28;20388;-45
2022/12/04 11:44:33;;;;;;;21.80;17.52;;;;;;;9.58;89.76;101423.84;5031689;28;20037;-44
2022/12/04 11:47:02;;;;;;;22.27;17.00;;;;;;;9.50;90.40;101412.25;5031429;28;20022;-47
2022/12/04 11:49:31;;;;;;;22.90;17.65;;;;;;;9.61;89.74;101418.97;5031572;28;20025;-45
2022/12/04 11:52:41;;;;;;;24.30;18.70;;;;;;;9.62;89.84;101409.94;5041299;28;20047;-44
2022/12/04 11:55:35;;;;;;;21.30;17.80;;;;;;;9.70;89.59;101407.16;5010973;28;20103;-45
2022/12/04 11:58:13;;;;;;;20.05;16.50;;;;;;;9.65;90.04;101419.41;5038697;28;20051;-44
2022/12/04 12:00:54;;;;;;;21.15;15.20;;;;;;;9.60;90.23;101416.47;5038136;28;20029;-46